sensor_id;sensor_type;location;lat;lon;timestamp;temperature;humidity
24252;DHT22;12380;51.118;4.176;2023-03-14T00:00:10;10.50;99.90
24252;DHT22;12380;51.118;4.176;2023-03-14T00:02:39;10.50;99.90
24252;DHT22;12380;51.118;4.176;2023-03-14T00:05:06;10.50;99.90
24252;DHT22;12380;51.118;4.176;2023-03-14T00:07:37;10.40;99.90
24252;DHT22;12380;51.118;4.176;2023-03-14T00:10:05;10.40;99.90
24252;DHT22;12380;51.118;4.176;2023-03-14T00:12:33;10.40;99.90
24252;DHT22;12380;51.118;4.176;2023-03-14T00:14:59;10.40;99.90
24252;DHT22;12380;51.118;4.176;2023-03-14T00:17:26;10.30;99.90
24252;DHT22;12380;51.118;4.176;2023-03-14T00:19:55;10.20;99.90
24252;DHT22;12380;51.118;4.176;2023-03-14T00:22:21;10.20;99.90
24252;DHT22;12380;51.118;4.176;2023-03-14T00:24:47;10.20;99.90
24252;DHT22;12380;51.118;4.176;2023-03-14T00:27:13;10.10;99.90
24252;DHT22;12380;51.118;4.176;2023-03-14T00:29:39;10.20;99.90
24252;DHT22;12380;51.118;4.176;2023-03-14T00:32:07;10.20;99.90
24252;DHT22;12380;51.118;4.176;2023-03-14T00:34:36;10.30;99.90
24252;DHT22;12380;51.118;4.176;2023-03-14T00:37:01;10.40;99.90
24252;DHT22;12380;51.118;4.176;2023-03-14T00:39:27;10.40;99.90
24252;DHT22;12380;51.118;4.176;2023-03-14T00:41:53;10.40;99.90
24252;DHT22;12380;51.118;4.176;2023-03-14T00:44:21;10.50;99.90
24252;DHT22;12380;51.118;4.176;2023-03-14T00:46:46;10.50;99.90
24252;DHT22;12380;51.118;4.176;2023-03-14T00:49:12;10.40;99.90
24252;DHT22;12380;51.118;4.176;2023-03-14T00:51:40;10.30;99.90
24252;DHT22;12380;51.118;4.176;2023-03-14T00:54:06;10.40;99.90
24252;DHT22;12380;51.118;4.176;2023-03-14T00:56:31;10.40;99.90
24252;DHT22;12380;51.118;4.176;2023-03-14T00:58:57;10.40;99.90
24252;DHT22;12380;51.118;4.176;2023-03-14T01:01:25;10.50;99.90
24252;DHT22;12380;51.118;4.176;2023-03-14T01:03:52;10.40;99.90
24252;DHT22;12380;51.118;4.176;2023-03-14T01:06:26;10.40;99.90
24252;DHT22;12380;51.118;4.176;2023-03-14T01:08:52;10.30;99.90
24252;DHT22;12380;51.118;4.176;2023-03-14T01:11:21;10.20;99.90
24252;DHT22;12380;51.118;4.176;2023-03-14T01:13:50;10.20;99.90
24252;DHT22;12380;51.118;4.176;2023-03-14T01:16:17;10.30;99.90
24252;DHT22;12380;51.118;4.176;2023-03-14T01:18:46;10.20;99.90
24252;DHT22;12380;51.118;4.176;2023-03-14T01:21:28;10.20;99.90
24252;DHT22;12380;51.118;4.176;2023-03-14T01:23:56;10.20;99.90
24252;DHT22;12380;51.118;4.176;2023-03-14T01:26:25;10.20;99.90
24252;DHT22;12380;51.118;4.176;2023-03-14T01:28:55;10.20;99.90
24252;DHT22;12380;51.118;4.176;2023-03-14T01:31:21;10.20;99.90
24252;DHT22;12380;51.118;4.176;2023-03-14T01:33:47;10.10;99.90
24252;DHT22;12380;51.118;4.176;2023-03-14T01:36:13;10.10;99.90
24252;DHT22;12380;51.118;4.176;2023-03-14T01:38:41;10.20;99.90
24252;DHT22;12380;51.118;4.176;2023-03-14T01:41:15;10.20;99.90
24252;DHT22;12380;51.118;4.176;2023-03-14T01:43:45;10.10;99.90
24252;DHT22;12380;51.118;4.176;2023-03-14T01:46:36;10.20;99.90
24252;DHT22;12380;51.118;4.176;2023-03-14T01:49:31;10.20;99.90
24252;DHT22;12380;51.118;4.176;2023-03-14T01:52:06;10.20;99.90
24252;DHT22;12380;51.118;4.176;2023-03-14T01:54:40;10.30;99.90
24252;DHT22;12380;51.118;4.176;2023-03-14T01:57:14;10.30;99.90
24252;DHT22;12380;51.118;4.176;2023-03-14T01:59:48;10.30;99.90
24252;DHT22;12380;51.118;4.176;2023-03-14T02:02:16;10.10;99.90
24252;DHT22;12380;51.118;4.176;2023-03-14T02:04:42;10.00;99.90
24252;DHT22;12380;51.118;4.176;2023-03-14T02:07:30;10.00;99.90
24252;DHT22;12380;51.118;4.176;2023-03-14T02:09:59;10.10;99.90
24252;DHT22;12380;51.118;4.176;2023-03-14T02:12:25;10.10;99.90
24252;DHT22;12380;51.118;4.176;2023-03-14T02:14:54;10.10;99.90
24252;DHT22;12380;51.118;4.176;2023-03-14T02:17:20;10.20;99.90
24252;DHT22;12380;51.118;4.176;2023-03-14T02:22:31;10.30;99.90
24252;DHT22;12380;51.118;4.176;2023-03-14T02:27:35;10.20;99.90
24252;DHT22;12380;51.118;4.176;2023-03-14T02:30:12;10.30;99.90
24252;DHT22;12380;51.118;4.176;2023-03-14T02:32:43;10.30;99.90
24252;DHT22;12380;51.118;4.176;2023-03-14T02:35:11;10.30;99.90
24252;DHT22;12380;51.118;4.176;2023-03-14T02:40:17;10.20;99.90
24252;DHT22;12380;51.118;4.176;2023-03-14T02:42:45;10.10;99.90
24252;DHT22;12380;51.118;4.176;2023-03-14T02:47:46;10.10;99.90
24252;DHT22;12380;51.118;4.176;2023-03-14T02:50:20;10.10;99.90
24252;DHT22;12380;51.118;4.176;2023-03-14T02:52:46;10.00;99.90
24252;DHT22;12380;51.118;4.176;2023-03-14T02:55:12;10.00;99.90
24252;DHT22;12380;51.118;4.176;2023-03-14T02:57:38;10.00;99.90
24252;DHT22;12380;51.118;4.176;2023-03-14T03:00:04;10.00;99.90
24252;DHT22;12380;51.118;4.176;2023-03-14T03:02:33;10.00;99.90
24252;DHT22;12380;51.118;4.176;2023-03-14T03:04:58;10.10;99.90
24252;DHT22;12380;51.118;4.176;2023-03-14T03:07:27;10.10;99.90
24252;DHT22;12380;51.118;4.176;2023-03-14T03:09:52;10.00;99.90
24252;DHT22;12380;51.118;4.176;2023-03-14T03:12:22;9.90;99.90
24252;DHT22;12380;51.118;4.176;2023-03-14T03:14:48;9.90;99.90
24252;DHT22;12380;51.118;4.176;2023-03-14T03:17:16;9.80;99.90
24252;DHT22;12380;51.118;4.176;2023-03-14T03:19:44;9.90;99.90
24252;DHT22;12380;51.118;4.176;2023-03-14T03:22:10;9.90;99.90
24252;DHT22;12380;51.118;4.176;2023-03-14T03:24:38;9.80;99.90
24252;DHT22;12380;51.118;4.176;2023-03-14T03:27:04;9.80;99.90
24252;DHT22;12380;51.118;4.176;2023-03-14T03:29:30;9.80;99.90
24252;DHT22;12380;51.118;4.176;2023-03-14T03:31:56;9.80;99.90
24252;DHT22;12380;51.118;4.176;2023-03-14T03:34:21;9.70;99.90
24252;DHT22;12380;51.118;4.176;2023-03-14T03:36:47;9.70;99.90
24252;DHT22;12380;51.118;4.176;2023-03-14T03:39:13;9.70;99.90
24252;DHT22;12380;51.118;4.176;2023-03-14T03:41:39;9.70;99.90
24252;DHT22;12380;51.118;4.176;2023-03-14T03:44:05;9.80;99.90
24252;DHT22;12380;51.118;4.176;2023-03-14T03:46:31;9.80;99.90
24252;DHT22;12380;51.118;4.176;2023-03-14T03:48:58;9.80;99.90
24252;DHT22;12380;51.118;4.176;2023-03-14T03:51:24;9.70;99.90
24252;DHT22;12380;51.118;4.176;2023-03-14T03:53:51;9.70;99.90
24252;DHT22;12380;51.118;4.176;2023-03-14T03:56:17;9.70;99.90
24252;DHT22;12380;51.118;4.176;2023-03-14T03:58:43;9.70;99.90
24252;DHT22;12380;51.118;4.176;2023-03-14T04:01:09;9.70;99.90
24252;DHT22;12380;51.118;4.176;2023-03-14T04:03:36;9.70;99.90
24252;DHT22;12380;51.118;4.176;2023-03-14T04:08:30;9.70;99.90
24252;DHT22;12380;51.118;4.176;2023-03-14T04:11:02;9.80;99.90
24252;DHT22;12380;51.118;4.176;2023-03-14T04:13:28;9.80;99.90
24252;DHT22;12380;51.118;4.176;2023-03-14T04:15:54;9.90;99.90
24252;DHT22;12380;51.118;4.176;2023-03-14T04:18:22;9.90;99.90
24252;DHT22;12380;51.118;4.176;2023-03-14T04:20:58;9.90;99.90
24252;DHT22;12380;51.118;4.176;2023-03-14T04:23:26;9.90;99.90
24252;DHT22;12380;51.118;4.176;2023-03-14T04:25:54;9.90;99.90
24252;DHT22;12380;51.118;4.176;2023-03-14T04:28:23;9.90;99.90
24252;DHT22;12380;51.118;4.176;2023-03-14T04:30:49;9.80;99.90
24252;DHT22;12380;51.118;4.176;2023-03-14T04:33:14;9.80;99.90
24252;DHT22;12380;51.118;4.176;2023-03-14T04:35:46;9.80;99.90
24252;DHT22;12380;51.118;4.176;2023-03-14T04:38:16;9.80;99.90
24252;DHT22;12380;51.118;4.176;2023-03-14T04:40:42;9.80;99.90
24252;DHT22;12380;51.118;4.176;2023-03-14T04:43:10;9.70;99.90
24252;DHT22;12380;51.118;4.176;2023-03-14T04:45:36;9.70;99.90
24252;DHT22;12380;51.118;4.176;2023-03-14T04:48:02;9.60;99.90
24252;DHT22;12380;51.118;4.176;2023-03-14T04:50:27;9.60;99.90
24252;DHT22;12380;51.118;4.176;2023-03-14T04:52:53;9.70;99.90
24252;DHT22;12380;51.118;4.176;2023-03-14T04:55:19;9.70;99.90
24252;DHT22;12380;51.118;4.176;2023-03-14T04:57:45;9.70;99.90
24252;DHT22;12380;51.118;4.176;2023-03-14T05:00:14;9.70;99.90
24252;DHT22;12380;51.118;4.176;2023-03-14T05:02:39;9.70;99.90
24252;DHT22;12380;51.118;4.176;2023-03-14T05:05:05;9.80;99.90
24252;DHT22;12380;51.118;4.176;2023-03-14T05:07:34;9.70;99.90
24252;DHT22;12380;51.118;4.176;2023-03-14T05:10:02;9.80;99.90
24252;DHT22;12380;51.118;4.176;2023-03-14T05:12:28;9.90;99.90
24252;DHT22;12380;51.118;4.176;2023-03-14T05:14:53;9.90;99.90
24252;DHT22;12380;51.118;4.176;2023-03-14T05:17:19;9.90;99.90
24252;DHT22;12380;51.118;4.176;2023-03-14T05:19:45;9.90;99.90
24252;DHT22;12380;51.118;4.176;2023-03-14T05:22:12;10.00;99.90
24252;DHT22;12380;51.118;4.176;2023-03-14T05:24:40;10.00;99.90
24252;DHT22;12380;51.118;4.176;2023-03-14T05:27:06;10.10;99.90
24252;DHT22;12380;51.118;4.176;2023-03-14T05:29:34;10.10;99.90
24252;DHT22;12380;51.118;4.176;2023-03-14T05:32:02;10.00;99.90
24252;DHT22;12380;51.118;4.176;2023-03-14T05:34:30;10.10;99.90
24252;DHT22;12380;51.118;4.176;2023-03-14T05:36:56;10.10;99.90
24252;DHT22;12380;51.118;4.176;2023-03-14T05:39:24;10.10;99.90
24252;DHT22;12380;51.118;4.176;2023-03-14T05:41:52;10.00;99.90
24252;DHT22;12380;51.118;4.176;2023-03-14T05:44:19;10.00;99.90
24252;DHT22;12380;51.118;4.176;2023-03-14T05:46:45;10.00;99.90
24252;DHT22;12380;51.118;4.176;2023-03-14T05:49:10;10.00;99.90
24252;DHT22;12380;51.118;4.176;2023-03-14T05:51:36;10.00;99.90
24252;DHT22;12380;51.118;4.176;2023-03-14T05:54:02;9.90;99.90
24252;DHT22;12380;51.118;4.176;2023-03-14T05:56:30;10.00;99.90
24252;DHT22;12380;51.118;4.176;2023-03-14T05:58:56;10.00;99.90
24252;DHT22;12380;51.118;4.176;2023-03-14T06:01:22;9.90;99.90
24252;DHT22;12380;51.118;4.176;2023-03-14T06:03:47;9.90;99.90
24252;DHT22;12380;51.118;4.176;2023-03-14T06:06:13;9.80;99.90
24252;DHT22;12380;51.118;4.176;2023-03-14T06:08:39;10.00;99.90
24252;DHT22;12380;51.118;4.176;2023-03-14T06:11:05;9.90;99.90
24252;DHT22;12380;51.118;4.176;2023-03-14T06:13:33;10.00;99.90
24252;DHT22;12380;51.118;4.176;2023-03-14T06:16:01;10.00;99.90
24252;DHT22;12380;51.118;4.176;2023-03-14T06:18:27;10.00;99.90
24252;DHT22;12380;51.118;4.176;2023-03-14T06:20:54;9.80;99.90
24252;DHT22;12380;51.118;4.176;2023-03-14T06:23:23;9.60;99.90
24252;DHT22;12380;51.118;4.176;2023-03-14T06:25:49;9.10;99.90
24252;DHT22;12380;51.118;4.176;2023-03-14T06:28:15;8.80;99.90
24252;DHT22;12380;51.118;4.176;2023-03-14T06:30:43;8.60;99.90
24252;DHT22;12380;51.118;4.176;2023-03-14T06:33:09;8.40;99.90
24252;DHT22;12380;51.118;4.176;2023-03-14T06:35:36;8.20;99.90
24252;DHT22;12380;51.118;4.176;2023-03-14T06:38:07;8.20;99.90
24252;DHT22;12380;51.118;4.176;2023-03-14T06:40:33;8.20;99.90
24252;DHT22;12380;51.118;4.176;2023-03-14T06:42:58;8.00;99.90
24252;DHT22;12380;51.118;4.176;2023-03-14T06:45:26;7.80;99.90
24252;DHT22;12380;51.118;4.176;2023-03-14T06:47:52;7.70;99.90
24252;DHT22;12380;51.118;4.176;2023-03-14T06:50:18;7.80;99.90
24252;DHT22;12380;51.118;4.176;2023-03-14T06:52:46;7.70;99.90
24252;DHT22;12380;51.118;4.176;2023-03-14T06:55:15;7.70;99.90
24252;DHT22;12380;51.118;4.176;2023-03-14T06:57:42;7.60;99.90
24252;DHT22;12380;51.118;4.176;2023-03-14T07:00:11;7.70;99.90
24252;DHT22;12380;51.118;4.176;2023-03-14T07:02:38;7.50;99.90
24252;DHT22;12380;51.118;4.176;2023-03-14T07:05:05;7.40;99.90
24252;DHT22;12380;51.118;4.176;2023-03-14T07:07:31;7.60;99.90
24252;DHT22;12380;51.118;4.176;2023-03-14T07:09:56;7.50;99.90
24252;DHT22;12380;51.118;4.176;2023-03-14T07:12:24;7.50;99.90
24252;DHT22;12380;51.118;4.176;2023-03-14T07:14:52;7.50;99.90
24252;DHT22;12380;51.118;4.176;2023-03-14T07:17:18;7.60;99.90
24252;DHT22;12380;51.118;4.176;2023-03-14T07:19:46;7.50;99.90
24252;DHT22;12380;51.118;4.176;2023-03-14T07:22:14;7.40;99.90
24252;DHT22;12380;51.118;4.176;2023-03-14T07:24:40;7.50;99.90
24252;DHT22;12380;51.118;4.176;2023-03-14T07:27:06;7.50;99.90
24252;DHT22;12380;51.118;4.176;2023-03-14T07:29:31;7.40;99.90
24252;DHT22;12380;51.118;4.176;2023-03-14T07:32:00;7.40;99.90
24252;DHT22;12380;51.118;4.176;2023-03-14T07:34:26;7.40;99.90
24252;DHT22;12380;51.118;4.176;2023-03-14T07:36:51;7.40;99.90
24252;DHT22;12380;51.118;4.176;2023-03-14T07:39:20;7.60;99.90
24252;DHT22;12380;51.118;4.176;2023-03-14T07:41:45;7.60;99.90
24252;DHT22;12380;51.118;4.176;2023-03-14T07:44:11;7.70;99.90
24252;DHT22;12380;51.118;4.176;2023-03-14T07:46:37;7.70;99.90
24252;DHT22;12380;51.118;4.176;2023-03-14T07:49:03;7.60;99.90
24252;DHT22;12380;51.118;4.176;2023-03-14T07:51:28;7.60;99.90
24252;DHT22;12380;51.118;4.176;2023-03-14T07:53:54;7.60;99.90
24252;DHT22;12380;51.118;4.176;2023-03-14T07:56:27;7.70;99.90
24252;DHT22;12380;51.118;4.176;2023-03-14T07:58:53;7.80;99.90
24252;DHT22;12380;51.118;4.176;2023-03-14T08:01:19;7.80;99.90
24252;DHT22;12380;51.118;4.176;2023-03-14T08:03:44;7.80;99.90
24252;DHT22;12380;51.118;4.176;2023-03-14T08:06:10;7.60;99.90
24252;DHT22;12380;51.118;4.176;2023-03-14T08:08:36;7.50;99.90
24252;DHT22;12380;51.118;4.176;2023-03-14T08:11:06;7.60;99.90
24252;DHT22;12380;51.118;4.176;2023-03-14T08:13:36;7.60;99.90
24252;DHT22;12380;51.118;4.176;2023-03-14T08:16:02;7.50;99.90
24252;DHT22;12380;51.118;4.176;2023-03-14T08:18:28;7.60;99.90
24252;DHT22;12380;51.118;4.176;2023-03-14T08:20:58;7.60;99.90
24252;DHT22;12380;51.118;4.176;2023-03-14T08:23:24;7.70;99.90
24252;DHT22;12380;51.118;4.176;2023-03-14T08:25:52;7.90;99.90
24252;DHT22;12380;51.118;4.176;2023-03-14T08:28:23;8.00;99.90
24252;DHT22;12380;51.118;4.176;2023-03-14T08:30:48;7.80;99.90
24252;DHT22;12380;51.118;4.176;2023-03-14T08:33:19;7.80;99.90
24252;DHT22;12380;51.118;4.176;2023-03-14T08:35:45;7.80;99.90
24252;DHT22;12380;51.118;4.176;2023-03-14T08:38:13;8.00;99.90
24252;DHT22;12380;51.118;4.176;2023-03-14T08:40:38;8.00;99.90
24252;DHT22;12380;51.118;4.176;2023-03-14T08:43:04;8.10;99.90
24252;DHT22;12380;51.118;4.176;2023-03-14T08:45:30;8.00;99.90
24252;DHT22;12380;51.118;4.176;2023-03-14T08:47:57;8.30;99.90
24252;DHT22;12380;51.118;4.176;2023-03-14T08:50:23;8.30;99.90
24252;DHT22;12380;51.118;4.176;2023-03-14T08:52:49;8.20;99.90
24252;DHT22;12380;51.118;4.176;2023-03-14T08:55:17;8.10;99.90
24252;DHT22;12380;51.118;4.176;2023-03-14T08:57:43;8.00;99.90
24252;DHT22;12380;51.118;4.176;2023-03-14T09:00:10;8.00;99.90
24252;DHT22;12380;51.118;4.176;2023-03-14T09:02:41;7.80;99.90
24252;DHT22;12380;51.118;4.176;2023-03-14T09:05:07;7.80;99.90
24252;DHT22;12380;51.118;4.176;2023-03-14T09:07:33;7.80;99.90
24252;DHT22;12380;51.118;4.176;2023-03-14T09:10:01;7.80;99.90
24252;DHT22;12380;51.118;4.176;2023-03-14T09:12:27;7.80;99.90
24252;DHT22;12380;51.118;4.176;2023-03-14T09:14:53;7.90;99.90
24252;DHT22;12380;51.118;4.176;2023-03-14T09:17:19;8.10;99.90
24252;DHT22;12380;51.118;4.176;2023-03-14T09:19:47;8.30;99.90
24252;DHT22;12380;51.118;4.176;2023-03-14T09:22:12;8.30;99.90
24252;DHT22;12380;51.118;4.176;2023-03-14T09:24:39;8.50;99.90
24252;DHT22;12380;51.118;4.176;2023-03-14T09:27:05;8.30;99.90
24252;DHT22;12380;51.118;4.176;2023-03-14T09:29:31;8.10;99.90
24252;DHT22;12380;51.118;4.176;2023-03-14T09:31:58;7.90;99.90
24252;DHT22;12380;51.118;4.176;2023-03-14T09:34:26;7.80;99.90
24252;DHT22;12380;51.118;4.176;2023-03-14T09:36:52;7.80;99.90
24252;DHT22;12380;51.118;4.176;2023-03-14T09:39:18;7.80;99.90
24252;DHT22;12380;51.118;4.176;2023-03-14T09:41:48;7.70;99.90
24252;DHT22;12380;51.118;4.176;2023-03-14T09:44:36;7.60;99.90
24252;DHT22;12380;51.118;4.176;2023-03-14T09:47:06;7.40;99.90
24252;DHT22;12380;51.118;4.176;2023-03-14T09:49:39;7.40;99.90
24252;DHT22;12380;51.118;4.176;2023-03-14T09:52:17;7.40;99.90
24252;DHT22;12380;51.118;4.176;2023-03-14T09:54:51;7.30;99.90
24252;DHT22;12380;51.118;4.176;2023-03-14T09:57:19;7.40;99.90
24252;DHT22;12380;51.118;4.176;2023-03-14T09:59:46;7.40;99.90
24252;DHT22;12380;51.118;4.176;2023-03-14T10:02:25;7.60;99.90
24252;DHT22;12380;51.118;4.176;2023-03-14T10:04:53;7.40;99.90
24252;DHT22;12380;51.118;4.176;2023-03-14T10:07:30;7.50;99.90
24252;DHT22;12380;51.118;4.176;2023-03-14T10:09:57;7.60;99.90
24252;DHT22;12380;51.118;4.176;2023-03-14T10:12:37;7.80;99.90
24252;DHT22;12380;51.118;4.176;2023-03-14T10:15:09;7.80;99.90
24252;DHT22;12380;51.118;4.176;2023-03-14T10:17:50;7.60;99.90
24252;DHT22;12380;51.118;4.176;2023-03-14T10:20:35;7.40;99.90
24252;DHT22;12380;51.118;4.176;2023-03-14T10:23:24;7.10;99.90
24252;DHT22;12380;51.118;4.176;2023-03-14T10:29:00;7.10;99.90
24252;DHT22;12380;51.118;4.176;2023-03-14T10:31:24;7.10;99.90
24252;DHT22;12380;51.118;4.176;2023-03-14T10:34:04;7.30;99.90
24252;DHT22;12380;51.118;4.176;2023-03-14T10:36:35;7.20;99.90
24252;DHT22;12380;51.118;4.176;2023-03-14T10:42:01;7.20;99.90
24252;DHT22;12380;51.118;4.176;2023-03-14T10:44:28;7.10;99.90
24252;DHT22;12380;51.118;4.176;2023-03-14T10:47:00;7.10;99.90
24252;DHT22;12380;51.118;4.176;2023-03-14T10:49:32;7.40;99.90
24252;DHT22;12380;51.118;4.176;2023-03-14T10:52:27;7.50;99.90
24252;DHT22;12380;51.118;4.176;2023-03-14T10:54:59;7.50;99.90
24252;DHT22;12380;51.118;4.176;2023-03-14T10:57:25;7.50;99.90
24252;DHT22;12380;51.118;4.176;2023-03-14T10:59:51;7.60;99.90
24252;DHT22;12380;51.118;4.176;2023-03-14T11:12:40;8.00;99.90
24252;DHT22;12380;51.118;4.176;2023-03-14T11:20:56;8.30;99.90
24252;DHT22;12380;51.118;4.176;2023-03-14T11:29:26;8.70;99.90
24252;DHT22;12380;51.118;4.176;2023-03-14T11:31:54;8.80;99.90
24252;DHT22;12380;51.118;4.176;2023-03-14T11:34:27;8.40;99.90
24252;DHT22;12380;51.118;4.176;2023-03-14T11:37:00;8.40;99.90
24252;DHT22;12380;51.118;4.176;2023-03-14T11:39:38;8.60;99.90
24252;DHT22;12380;51.118;4.176;2023-03-14T11:42:07;8.60;99.90
24252;DHT22;12380;51.118;4.176;2023-03-14T11:44:40;8.40;99.90
24252;DHT22;12380;51.118;4.176;2023-03-14T11:47:30;8.50;99.90
24252;DHT22;12380;51.118;4.176;2023-03-14T11:50:18;8.30;99.90
24252;DHT22;12380;51.118;4.176;2023-03-14T11:52:58;8.50;99.90
24252;DHT22;12380;51.118;4.176;2023-03-14T11:55:36;8.90;99.90
24252;DHT22;12380;51.118;4.176;2023-03-14T12:00:38;9.30;99.90
24252;DHT22;12380;51.118;4.176;2023-03-14T12:03:17;9.50;99.90
24252;DHT22;12380;51.118;4.176;2023-03-14T12:05:50;9.70;99.90
24252;DHT22;12380;51.118;4.176;2023-03-14T12:13:50;9.70;99.90
24252;DHT22;12380;51.118;4.176;2023-03-14T12:18:48;8.50;99.90
24252;DHT22;12380;51.118;4.176;2023-03-14T12:21:15;7.90;99.90
24252;DHT22;12380;51.118;4.176;2023-03-14T12:23:51;8.00;99.90
24252;DHT22;12380;51.118;4.176;2023-03-14T12:26:26;7.90;99.90
24252;DHT22;12380;51.118;4.176;2023-03-14T12:34:24;7.90;99.90
24252;DHT22;12380;51.118;4.176;2023-03-14T12:55:38;9.00;99.90
24252;DHT22;12380;51.118;4.176;2023-03-14T13:01:03;9.30;99.90
24252;DHT22;12380;51.118;4.176;2023-03-14T13:04:03;9.00;99.90
24252;DHT22;12380;51.118;4.176;2023-03-14T13:06:58;8.90;99.90
24252;DHT22;12380;51.118;4.176;2023-03-14T13:12:13;8.90;99.90
24252;DHT22;12380;51.118;4.176;2023-03-14T13:14:48;8.90;99.90
24252;DHT22;12380;51.118;4.176;2023-03-14T13:17:18;8.90;99.90
24252;DHT22;12380;51.118;4.176;2023-03-14T13:19:52;8.80;99.90
24252;DHT22;12380;51.118;4.176;2023-03-14T13:22:30;8.80;99.90
24252;DHT22;12380;51.118;4.176;2023-03-14T13:25:05;8.60;99.90
24252;DHT22;12380;51.118;4.176;2023-03-14T13:27:34;8.40;99.90
24252;DHT22;12380;51.118;4.176;2023-03-14T13:30:17;8.50;99.90
24252;DHT22;12380;51.118;4.176;2023-03-14T13:32:48;8.70;99.90
24252;DHT22;12380;51.118;4.176;2023-03-14T13:35:17;9.00;99.90
24252;DHT22;12380;51.118;4.176;2023-03-14T13:37:43;9.30;99.90
24252;DHT22;12380;51.118;4.176;2023-03-14T13:40:19;9.10;99.90
24252;DHT22;12380;51.118;4.176;2023-03-14T13:42:45;9.00;99.90
24252;DHT22;12380;51.118;4.176;2023-03-14T13:45:14;9.20;99.90
24252;DHT22;12380;51.118;4.176;2023-03-14T13:47:40;9.20;99.90
24252;DHT22;12380;51.118;4.176;2023-03-14T13:50:15;8.80;99.90
24252;DHT22;12380;51.118;4.176;2023-03-14T13:52:40;8.70;99.90
24252;DHT22;12380;51.118;4.176;2023-03-14T13:55:15;9.00;99.90
24252;DHT22;12380;51.118;4.176;2023-03-14T13:57:47;9.40;99.90
24252;DHT22;12380;51.118;4.176;2023-03-14T14:00:22;9.50;99.90
24252;DHT22;12380;51.118;4.176;2023-03-14T14:02:56;9.10;99.90
24252;DHT22;12380;51.118;4.176;2023-03-14T14:05:26;8.90;99.90
24252;DHT22;12380;51.118;4.176;2023-03-14T14:07:53;8.70;99.90
24252;DHT22;12380;51.118;4.176;2023-03-14T14:10:20;8.30;99.90
24252;DHT22;12380;51.118;4.176;2023-03-14T14:12:54;8.20;99.90
24252;DHT22;12380;51.118;4.176;2023-03-14T14:15:29;8.10;99.90
24252;DHT22;12380;51.118;4.176;2023-03-14T14:18:08;8.00;99.90
24252;DHT22;12380;51.118;4.176;2023-03-14T14:20:44;8.10;99.90
24252;DHT22;12380;51.118;4.176;2023-03-14T14:23:21;7.50;99.90
24252;DHT22;12380;51.118;4.176;2023-03-14T14:25:57;7.50;99.90
24252;DHT22;12380;51.118;4.176;2023-03-14T14:28:30;7.50;99.90
24252;DHT22;12380;51.118;4.176;2023-03-14T14:33:44;7.60;99.90
24252;DHT22;12380;51.118;4.176;2023-03-14T14:36:19;7.70;99.90
24252;DHT22;12380;51.118;4.176;2023-03-14T14:38:57;7.80;99.90
24252;DHT22;12380;51.118;4.176;2023-03-14T14:41:30;7.90;99.90
24252;DHT22;12380;51.118;4.176;2023-03-14T14:43:56;7.80;99.90
24252;DHT22;12380;51.118;4.176;2023-03-14T14:46:22;7.80;99.90
24252;DHT22;12380;51.118;4.176;2023-03-14T14:48:57;7.90;99.90
24252;DHT22;12380;51.118;4.176;2023-03-14T14:51:34;7.90;99.90
24252;DHT22;12380;51.118;4.176;2023-03-14T14:54:13;8.00;99.90
24252;DHT22;12380;51.118;4.176;2023-03-14T14:56:39;7.80;99.90
24252;DHT22;12380;51.118;4.176;2023-03-14T14:59:17;7.80;99.90
24252;DHT22;12380;51.118;4.176;2023-03-14T15:01:46;7.80;99.90
24252;DHT22;12380;51.118;4.176;2023-03-14T15:04:19;7.60;99.90
24252;DHT22;12380;51.118;4.176;2023-03-14T15:06:46;7.80;99.90
24252;DHT22;12380;51.118;4.176;2023-03-14T15:09:14;7.60;99.90
24252;DHT22;12380;51.118;4.176;2023-03-14T15:11:41;7.50;99.90
24252;DHT22;12380;51.118;4.176;2023-03-14T15:14:12;7.50;99.90
24252;DHT22;12380;51.118;4.176;2023-03-14T15:16:38;7.50;99.90
24252;DHT22;12380;51.118;4.176;2023-03-14T15:19:18;7.60;99.90
24252;DHT22;12380;51.118;4.176;2023-03-14T15:21:54;7.60;99.90
24252;DHT22;12380;51.118;4.176;2023-03-14T15:24:22;7.70;99.90
24252;DHT22;12380;51.118;4.176;2023-03-14T15:26:50;7.60;99.90
24252;DHT22;12380;51.118;4.176;2023-03-14T15:29:20;7.60;99.90
24252;DHT22;12380;51.118;4.176;2023-03-14T15:31:46;7.60;99.90
24252;DHT22;12380;51.118;4.176;2023-03-14T15:34:12;7.70;99.90
24252;DHT22;12380;51.118;4.176;2023-03-14T15:36:38;7.80;99.90
24252;DHT22;12380;51.118;4.176;2023-03-14T15:39:06;7.80;99.90
24252;DHT22;12380;51.118;4.176;2023-03-14T15:41:34;7.80;99.90
24252;DHT22;12380;51.118;4.176;2023-03-14T15:44:00;7.60;99.90
24252;DHT22;12380;51.118;4.176;2023-03-14T15:46:26;7.50;99.90
24252;DHT22;12380;51.118;4.176;2023-03-14T15:48:52;7.30;99.90
24252;DHT22;12380;51.118;4.176;2023-03-14T15:51:18;7.20;99.90
24252;DHT22;12380;51.118;4.176;2023-03-14T15:53:44;7.20;99.90
24252;DHT22;12380;51.118;4.176;2023-03-14T15:56:18;7.20;99.90
24252;DHT22;12380;51.118;4.176;2023-03-14T15:58:49;7.30;99.90
24252;DHT22;12380;51.118;4.176;2023-03-14T16:01:17;7.40;99.90
24252;DHT22;12380;51.118;4.176;2023-03-14T16:03:46;7.20;99.90
24252;DHT22;12380;51.118;4.176;2023-03-14T16:06:14;7.30;99.90
24252;DHT22;12380;51.118;4.176;2023-03-14T16:08:40;7.30;99.90
24252;DHT22;12380;51.118;4.176;2023-03-14T16:11:09;7.50;99.90
24252;DHT22;12380;51.118;4.176;2023-03-14T16:13:35;7.30;99.90
24252;DHT22;12380;51.118;4.176;2023-03-14T16:16:02;7.30;99.90
24252;DHT22;12380;51.118;4.176;2023-03-14T16:18:31;7.50;99.90
24252;DHT22;12380;51.118;4.176;2023-03-14T16:21:03;7.70;99.90
24252;DHT22;12380;51.118;4.176;2023-03-14T16:23:31;7.80;99.90
24252;DHT22;12380;51.118;4.176;2023-03-14T16:26:07;8.00;99.90
24252;DHT22;12380;51.118;4.176;2023-03-14T16:28:33;8.00;99.90
24252;DHT22;12380;51.118;4.176;2023-03-14T16:31:04;8.00;99.90
24252;DHT22;12380;51.118;4.176;2023-03-14T16:33:32;7.90;99.90
24252;DHT22;12380;51.118;4.176;2023-03-14T16:35:59;7.80;99.90
24252;DHT22;12380;51.118;4.176;2023-03-14T16:38:27;7.90;99.90
24252;DHT22;12380;51.118;4.176;2023-03-14T16:40:57;7.70;99.90
24252;DHT22;12380;51.118;4.176;2023-03-14T16:43:23;7.60;99.90
24252;DHT22;12380;51.118;4.176;2023-03-14T16:45:54;7.60;99.90
24252;DHT22;12380;51.118;4.176;2023-03-14T16:48:21;7.60;99.90
24252;DHT22;12380;51.118;4.176;2023-03-14T16:50:50;7.40;99.90
24252;DHT22;12380;51.118;4.176;2023-03-14T16:53:16;7.40;99.90
24252;DHT22;12380;51.118;4.176;2023-03-14T16:55:48;7.30;99.90
24252;DHT22;12380;51.118;4.176;2023-03-14T16:58:17;7.30;99.90
24252;DHT22;12380;51.118;4.176;2023-03-14T17:00:48;7.40;99.90
24252;DHT22;12380;51.118;4.176;2023-03-14T17:03:15;7.50;99.90
24252;DHT22;12380;51.118;4.176;2023-03-14T17:05:48;7.30;99.90
24252;DHT22;12380;51.118;4.176;2023-03-14T17:08:16;7.10;99.90
24252;DHT22;12380;51.118;4.176;2023-03-14T17:10:44;7.10;99.90
24252;DHT22;12380;51.118;4.176;2023-03-14T17:13:10;7.10;99.90
24252;DHT22;12380;51.118;4.176;2023-03-14T17:15:36;7.00;99.90
24252;DHT22;12380;51.118;4.176;2023-03-14T17:18:04;6.80;99.90